Time;durP1;ratioP1;P1;durP2;ratioP2;P2;SDS_P1;SDS_P2;PMS_P1;PMS_P2;Temp;Humidity;BMP_temperature;BMP_pressure;BME280_temperature;BME280_humidity;BME280_pressure;Samples;Min_cycle;Max_cycle;Signal;HPM_P1;HPM_P2
2023/10/04 00:00:39;;;;;;;0.98;0.65;;;16.00;67.60;;;;;;5051003;28;20052;-71
2023/10/04 00:03:06;;;;;;;3.10;1.38;;;16.00;67.50;;;;;;5052755;28;20045;-71
2023/10/04 00:05:34;;;;;;;2.40;1.20;;;16.00;67.30;;;;;;5055102;28;20116;-71
2023/10/04 00:08:00;;;;;;;1.27;0.75;;;16.10;67.80;;;;;;5038246;28;20032;-71
2023/10/04 00:10:26;;;;;;;1.95;1.42;;;16.10;67.80;;;;;;5036855;28;20037;-71
2023/10/04 00:12:53;;;;;;;3.70;1.38;;;16.10;67.80;;;;;;5055393;28;20394;-71
2023/10/04 00:15:25;;;;;;;1.75;1.60;;;16.00;67.60;;;;;;5054740;28;20056;-71
2023/10/04 00:17:52;;;;;;;3.55;1.77;;;16.00;67.60;;;;;;5021906;28;20497;-71
2023/10/04 00:20:20;;;;;;;1.92;1.50;;;16.00;68.40;;;;;;5020299;28;20065;-71
2023/10/04 00:22:47;;;;;;;12.90;2.97;;;16.00;68.50;;;;;;5037334;28;20569;-71
2023/10/04 00:25:33;;;;;;;2.42;0.82;;;16.00;68.40;;;;;;5036754;28;20094;-71
2023/10/04 00:28:00;;;;;;;2.10;1.42;;;16.00;68.30;;;;;;5055432;28;20063;-71
2023/10/04 00:30:29;;;;;;;1.65;0.75;;;16.00;68.50;;;;;;5036617;28;20045;-71
2023/10/04 00:32:57;;;;;;;1.75;1.50;;;16.00;68.40;;;;;;5021180;28;20040;-71
2023/10/04 00:35:25;;;;;;;2.53;1.63;;;16.00;68.40;;;;;;5036860;28;20033;-71
2023/10/04 00:40:39;;;;;;;1.73;0.98;;;15.90;68.40;;;;;;5039528;28;20037;-71
2023/10/04 00:43:13;;;;;;;;;;;15.90;68.60;;;;;;5055633;28;20033;-71
2023/10/04 00:45:45;;;;;;;6.05;2.08;;;15.90;68.60;;;;;;5036658;28;19917;-71
2023/10/04 00:48:11;;;;;;;2.67;1.88;;;15.80;68.50;;;;;;5053736;28;20033;-71
2023/10/04 00:50:39;;;;;;;1.13;0.75;;;15.90;68.90;;;;;;5053841;28;20041;-71
2023/10/04 00:53:26;;;;;;;4.07;1.17;;;15.80;68.50;;;;;;5037184;28;20044;-71
2023/10/04 00:55:57;;;;;;;2.40;1.57;;;15.80;68.50;;;;;;5036585;28;20098;-71
2023/10/04 00:58:23;;;;;;;1.98;0.98;;;15.70;68.70;;;;;;5037620;28;20997;-71
2023/10/04 01:00:50;;;;;;;2.45;0.80;;;15.70;67.90;;;;;;5035798;28;20080;-71
2023/10/04 01:03:26;;;;;;;1.10;1.00;;;15.70;68.50;;;;;;5037009;28;20048;-71
2023/10/04 01:05:52;;;;;;;1.67;1.20;;;15.60;68.10;;;;;;5054016;28;20072;-71
2023/10/04 01:08:22;;;;;;;4.47;0.95;;;15.60;68.20;;;;;;5036894;28;20040;-71
2023/10/04 01:10:50;;;;;;;1.42;0.85;;;15.60;68.90;;;;;;5036091;28;20501;-71
2023/10/04 01:13:21;;;;;;;2.22;1.10;;;15.60;68.90;;;;;;5052953;28;20381;-71
2023/10/04 01:15:49;;;;;;;1.80;0.95;;;15.60;69.00;;;;;;5052567;28;20394;-71
2023/10/04 01:21:00;;;;;;;1.45;0.80;;;15.50;68.20;;;;;;5053576;28;20052;-71
2023/10/04 01:23:28;;;;;;;1.65;0.80;;;15.40;68.50;;;;;;5036335;28;20072;-71
2023/10/04 01:25:54;;;;;;;2.83;1.45;;;15.40;68.60;;;;;;5035285;28;20037;-71
2023/10/04 01:31:05;;;;;;;2.35;1.15;;;15.40;68.90;;;;;;5053184;28;20043;-71
2023/10/04 01:33:32;;;;;;;2.47;1.85;;;15.40;69.20;;;;;;5036282;28;20041;-71
2023/10/04 01:35:58;;;;;;;1.42;0.90;;;15.40;69.50;;;;;;5053535;28;20128;-71
2023/10/04 01:38:25;;;;;;;0.77;0.60;;;15.40;69.80;;;;;;5036076;28;20060;-71
2023/10/04 01:40:52;;;;;;;2.13;1.00;;;15.40;69.80;;;;;;5035133;28;20040;-71
2023/10/04 01:43:19;;;;;;;1.10;1.00;;;15.30;70.70;;;;;;5035728;28;20037;-71
2023/10/04 01:46:04;;;;;;;2.08;1.20;;;15.30;70.60;;;;;;5053078;28;20044;-71
2023/10/04 01:51:18;;;;;;;1.88;1.15;;;15.40;71.00;;;;;;5052967;28;20045;-71
2023/10/04 01:53:45;;;;;;;2.00;0.95;;;15.40;71.10;;;;;;5035661;28;20036;-71
2023/10/04 01:56:11;;;;;;;2.50;0.85;;;15.40;71.10;;;;;;5035039;28;20040;-71
2023/10/04 01:58:37;;;;;;;1.10;0.63;;;15.30;71.90;;;;;;5053636;28;20543;-71
2023/10/04 02:03:50;;;;;;;6.70;2.67;;;15.30;71.90;;;;;;5053791;28;20048;-71
2023/10/04 02:06:16;;;;;;;2.22;1.63;;;15.40;71.60;;;;;;5035093;28;20040;-71
2023/10/04 02:08:45;;;;;;;7.03;3.10;;;15.40;71.60;;;;;;5053639;28;20532;-71
2023/10/04 02:11:12;;;;;;;2.70;0.98;;;15.40;71.70;;;;;;5034521;28;20434;-71
2023/10/04 02:13:40;;;;;;;;;;;15.40;71.50;;;;;;5035628;28;20106;-71
2023/10/04 02:16:06;;;;;;;1.25;0.82;;;15.40;71.20;;;;;;5051580;28;20217;-71
2023/10/04 02:18:33;;;;;;;1.38;1.00;;;15.40;71.20;;;;;;5035151;28;20056;-71
2023/10/04 02:20:59;;;;;;;5.10;1.85;;;15.40;70.80;;;;;;5034319;28;20061;-71
2023/10/04 02:23:25;;;;;;;;;;;15.40;71.70;;;;;;5053421;28;20057;-71
2023/10/04 02:25:52;;;;;;;2.10;1.17;;;15.40;71.50;;;;;;5033504;28;20012;-71
2023/10/04 02:28:18;;;;;;;1.63;0.75;;;15.30;71.40;;;;;;5052429;28;20033;-71
2023/10/04 02:30:48;;;;;;;1.55;1.00;;;15.30;71.60;;;;;;5017035;28;20497;-71
2023/10/04 02:33:16;;;;;;;1.95;1.02;;;15.30;71.70;;;;;;5034987;28;20052;-71
2023/10/04 02:36:01;;;;;;;1.30;0.90;;;15.30;71.40;;;;;;5033981;28;20033;-71
2023/10/04 02:38:27;;;;;;;1.48;0.85;;;15.30;71.40;;;;;;5034237;28;20424;-71
2023/10/04 02:40:54;;;;;;;;;;;15.30;71.40;;;;;;5017438;28;20037;-71
2023/10/04 02:43:22;;;;;;;0.75;0.60;;;15.30;71.20;;;;;;5052286;28;19924;-70
2023/10/04 02:45:50;;;;;;;2.22;1.30;;;15.30;71.30;;;;;;5051513;28;20094;-71
2023/10/04 02:48:17;;;;;;;1.15;0.70;;;15.30;71.20;;;;;;5052002;28;20045;-71
2023/10/04 02:50:44;;;;;;;3.58;1.25;;;15.30;71.20;;;;;;5050831;28;20469;-70
2023/10/04 02:53:12;;;;;;;1.00;0.47;;;15.20;72.10;;;;;;5017879;28;20029;-71
2023/10/04 02:55:39;;;;;;;2.78;1.85;;;15.30;71.40;;;;;;5051344;28;20053;-70
2023/10/04 02:58:06;;;;;;;1.70;1.02;;;15.20;71.30;;;;;;5051890;28;20556;-71
2023/10/04 03:00:36;;;;;;;1.63;0.93;;;15.20;71.10;;;;;;5033308;28;20033;-71
2023/10/04 03:03:05;;;;;;;5.35;2.45;;;15.20;71.70;;;;;;5034230;28;20055;-71
2023/10/04 03:05:33;;;;;;;2.58;1.33;;;15.20;71.80;;;;;;5051097;28;20127;-71
2023/10/04 03:08:06;;;;;;;1.17;0.70;;;15.20;71.70;;;;;;5051805;28;20037;-71
2023/10/04 03:10:33;;;;;;;1.45;0.70;;;15.30;71.80;;;;;;5033923;28;20463;-71
2023/10/04 03:13:01;;;;;;;1.13;0.63;;;15.20;71.60;;;;;;5050601;28;20039;-71
2023/10/04 03:15:28;;;;;;;2.15;1.95;;;15.20;71.50;;;;;;5051365;28;20040;-71
2023/10/04 03:18:20;;;;;;;1.77;1.05;;;15.20;71.60;;;;;;5051785;28;20052;-71
2023/10/04 03:21:11;;;;;;;1.75;0.90;;;15.20;71.80;;;;;;5017412;28;20550;-71
2023/10/04 03:23:35;;;;;;;6.28;1.45;;;15.30;71.60;;;;;;5051675;28;20053;-71
2023/10/04 03:26:20;;;;;;;1.98;1.05;;;15.30;71.30;;;;;;5033548;28;20029;-71
2023/10/04 03:28:46;;;;;;;1.73;1.25;;;15.40;71.70;;;;;;5017259;28;20083;-71
2023/10/04 03:31:14;;;;;;;1.48;0.88;;;15.40;71.80;;;;;;5050575;28;20494;-71
2023/10/04 03:36:29;;;;;;;2.40;0.85;;;15.40;71.60;;;;;;5036428;28;20037;-71
2023/10/04 03:38:55;;;;;;;2.00;1.60;;;15.40;71.60;;;;;;5036274;28;20068;-71
2023/10/04 03:41:21;;;;;;;2.55;0.88;;;15.40;71.70;;;;;;5054439;28;20090;-71
2023/10/04 03:43:47;;;;;;;2.60;1.88;;;15.40;71.80;;;;;;5037618;28;20478;-71
2023/10/04 03:48:58;;;;;;;1.40;1.00;;;15.40;72.00;;;;;;5055679;28;20048;-71
2023/10/04 03:51:24;;;;;;;3.17;2.03;;;15.40;71.90;;;;;;5054170;28;20441;-71
2023/10/04 03:53:52;;;;;;;;;;;15.30;72.00;;;;;;5021542;28;20454;-71
2023/10/04 03:56:20;;;;;;;2.97;1.83;;;15.30;71.80;;;;;;5054716;28;19919;-71
2023/10/04 03:58:48;;;;;;;1.25;0.77;;;15.30;71.70;;;;;;5053911;28;20132;-71
2023/10/04 04:01:15;;;;;;;1.85;1.05;;;15.20;71.60;;;;;;5020248;28;20051;-71
2023/10/04 04:03:41;;;;;;;4.57;1.42;;;15.20;71.70;;;;;;5037252;28;20045;-71
2023/10/04 04:06:08;;;;;;;0.93;0.70;;;15.20;71.70;;;;;;5036744;28;20103;-71
2023/10/04 04:08:34;;;;;;;2.28;1.15;;;15.20;71.40;;;;;;5055114;28;20043;-71
2023/10/04 04:11:01;;;;;;;5.47;1.98;;;15.20;71.50;;;;;;5054067;28;20066;-71
2023/10/04 04:13:27;;;;;;;1.13;0.73;;;15.20;71.60;;;;;;5054939;28;20056;-71
2023/10/04 04:15:53;;;;;;;1.38;0.82;;;15.20;71.50;;;;;;5036482;28;20316;-71
2023/10/04 04:20:47;;;;;;;2.92;1.63;;;15.20;71.60;;;;;;5053812;28;20029;-71
2023/10/04 04:23:15;;;;;;;1.38;0.93;;;15.20;71.50;;;;;;5053479;28;20076;-71
2023/10/04 04:25:43;;;;;;;4.70;1.70;;;15.10;71.00;;;;;;5036486;28;20031;-71
2023/10/04 04:28:14;;;;;;;2.75;1.38;;;15.10;71.50;;;;;;5036940;28;20047;-71
2023/10/04 04:30:41;;;;;;;1.35;0.75;;;15.10;71.50;;;;;;5053644;28;20478;-71
2023/10/04 04:33:07;;;;;;;0.93;0.70;;;15.10;71.60;;;;;;5036926;28;20104;-71
2023/10/04 04:38:17;;;;;;;1.65;1.20;;;15.00;71.30;;;;;;5036800;28;20037;-71
2023/10/04 04:41:05;;;;;;;0.98;0.65;;;15.00;70.80;;;;;;5038034;28;20029;-71
2023/10/04 04:43:38;;;;;;;2.35;1.75;;;15.00;71.10;;;;;;5054384;28;20044;-71
2023/10/04 04:46:12;;;;;;;4.00;1.20;;;14.90;70.90;;;;;;5053786;28;20508;-71
2023/10/04 04:48:39;;;;;;;1.25;0.85;;;14.90;70.80;;;;;;5036950;28;20086;-71
2023/10/04 04:53:42;;;;;;;1.63;0.93;;;15.00;70.80;;;;;;5036923;28;20095;-71
2023/10/04 04:56:16;;;;;;;3.58;1.58;;;15.00;70.80;;;;;;5035882;28;20039;-71
2023/10/04 05:01:34;;;;;;;1.95;1.15;;;15.30;72.30;;;;;;5037960;28;20045;-71
2023/10/04 05:04:03;;;;;;;2.55;2.03;;;15.40;73.50;;;;;;5054185;28;20474;-71
2023/10/04 05:06:30;;;;;;;0.75;0.60;;;15.60;74.00;;;;;;5035778;28;20068;-71
2023/10/04 05:08:56;;;;;;;1.42;0.98;;;15.70;74.50;;;;;;5036071;28;20044;-71
2023/10/04 05:11:26;;;;;;;;;;;15.80;74.50;;;;;;5035677;28;20068;-71
2023/10/04 05:13:57;;;;;;;1.98;1.23;;;15.90;73.70;;;;;;5019830;28;19972;-71
2023/10/04 05:16:24;;;;;;;1.02;0.63;;;16.00;74.30;;;;;;5019585;28;20079;-71
2023/10/04 05:18:52;;;;;;;1.40;0.95;;;16.10;73.90;;;;;;5035930;28;20075;-71
2023/10/04 05:21:18;;;;;;;1.27;1.13;;;16.20;74.70;;;;;;5052530;28;20033;-71
2023/10/04 05:23:44;;;;;;;2.03;1.30;;;16.30;74.60;;;;;;5035776;28;20059;-71
2023/10/04 05:26:12;;;;;;;1.73;0.77;;;16.40;74.60;;;;;;5035345;28;20041;-71
2023/10/04 05:28:39;;;;;;;3.78;0.80;;;16.50;74.50;;;;;;5053293;28;20037;-71
2023/10/04 05:31:05;;;;;;;7.43;1.23;;;16.50;74.40;;;;;;5052404;28;20116;-71
2023/10/04 05:33:31;;;;;;;1.30;0.80;;;16.60;74.60;;;;;;5052200;28;20037;-71
2023/10/04 05:36:00;;;;;;;0.80;0.40;;;16.70;74.60;;;;;;5052932;28;20064;-71
2023/10/04 05:38:26;;;;;;;1.80;0.95;;;16.70;74.30;;;;;;5053341;28;20037;-71
2023/10/04 05:40:52;;;;;;;;;;;16.80;74.20;;;;;;5035023;28;20037;-71
2023/10/04 05:43:19;;;;;;;8.15;1.20;;;16.80;73.80;;;;;;5053306;28;20463;-71
2023/10/04 05:45:47;;;;;;;2.67;1.20;;;16.80;73.70;;;;;;5052551;28;20041;-71
2023/10/04 05:48:14;;;;;;;0.63;0.40;;;16.90;73.60;;;;;;5035563;28;20466;-71
2023/10/04 05:50:40;;;;;;;1.42;0.88;;;17.00;73.40;;;;;;5034283;28;20115;-71
2023/10/04 05:53:08;;;;;;;1.75;0.88;;;17.10;73.50;;;;;;5035332;28;20099;-71
2023/10/04 05:55:54;;;;;;;1.73;0.85;;;17.10;73.20;;;;;;5034612;28;20055;-71
2023/10/04 05:58:21;;;;;;;1.10;0.70;;;17.20;73.20;;;;;;5035221;28;20037;-71
2023/10/04 06:00:53;;;;;;;0.75;0.50;;;17.30;73.10;;;;;;5051065;28;20036;-71
2023/10/04 06:03:20;;;;;;;0.95;0.75;;;17.40;72.80;;;;;;5052969;28;20033;-71
2023/10/04 06:05:46;;;;;;;1.23;0.77;;;17.40;72.50;;;;;;5034488;28;20087;-71
2023/10/04 06:08:23;;;;;;;2.65;0.82;;;17.50;71.80;;;;;;5034904;28;20108;-71
2023/10/04 06:10:53;;;;;;;2.95;1.30;;;17.60;71.80;;;;;;5051706;28;20033;-71
2023/10/04 06:13:22;;;;;;;0.35;0.35;;;17.70;71.70;;;;;;5035038;28;20374;-72
2023/10/04 06:15:53;;;;;;;2.33;1.00;;;17.70;71.50;;;;;;5034743;28;20029;-71
2023/10/04 06:18:19;;;;;;;2.08;1.33;;;17.80;71.30;;;;;;5035134;28;20088;-72
2023/10/04 06:20:45;;;;;;;0.70;0.63;;;17.90;71.40;;;;;;5051600;28;20033;-72
2023/10/04 06:23:14;;;;;;;0.85;0.85;;;17.90;71.20;;;;;;5052580;28;20049;-71
2023/10/04 06:25:59;;;;;;;3.55;0.80;;;17.90;70.80;;;;;;5017572;28;20035;-71
2023/10/04 06:28:25;;;;;;;0.90;0.70;;;18.10;71.00;;;;;;5052466;28;20441;-71
2023/10/04 06:30:52;;;;;;;0.68;0.60;;;18.20;70.50;;;;;;5033565;28;20033;-71
2023/10/04 06:33:18;;;;;;;1.60;0.70;;;18.40;70.10;;;;;;5052132;28;20131;-71
2023/10/04 06:35:44;;;;;;;2.63;0.80;;;18.50;70.00;;;;;;5029082;28;20074;-71
2023/10/04 06:38:13;;;;;;;1.17;0.80;;;18.60;69.70;;;;;;5051963;28;20072;-71
2023/10/04 06:40:40;;;;;;;0.77;0.40;;;18.70;69.20;;;;;;5033146;28;20040;-71
2023/10/04 06:43:08;;;;;;;2.20;1.23;;;18.80;69.10;;;;;;5013406;28;20084;-71
2023/10/04 06:45:36;;;;;;;1.27;0.73;;;18.80;68.80;;;;;;5015528;28;20120;-71
2023/10/04 06:48:04;;;;;;;1.17;0.38;;;18.90;68.60;;;;;;5031675;28;20055;-72
2023/10/04 06:50:32;;;;;;;0.70;0.52;;;19.00;68.30;;;;;;5048144;28;20033;-71
2023/10/04 06:53:02;;;;;;;1.70;1.08;;;19.00;68.00;;;;;;5033970;28;20045;-71
2023/10/04 06:55:30;;;;;;;2.00;1.25;;;19.10;67.60;;;;;;5033576;28;20035;-71
2023/10/04 06:57:56;;;;;;;1.75;1.10;;;19.10;67.30;;;;;;5017803;28;20516;-71
2023/10/04 07:00:41;;;;;;;4.22;0.93;;;19.20;66.50;;;;;;5050819;28;20029;-71
2023/10/04 07:03:08;;;;;;;2.08;0.63;;;19.30;67.10;;;;;;5030429;28;20493;-71
2023/10/04 07:05:38;;;;;;;1.40;0.75;;;19.30;66.60;;;;;;5031518;28;20026;-71
2023/10/04 07:08:08;;;;;;;1.48;1.08;;;19.40;66.30;;;;;;5035215;28;20433;-71
2023/10/04 07:10:36;;;;;;;3.55;0.68;;;19.50;66.40;;;;;;5050486;28;20056;-71
2023/10/04 07:13:03;;;;;;;0.73;0.73;;;19.50;66.20;;;;;;5033670;28;20386;-71
2023/10/04 07:15:39;;;;;;;2.63;1.35;;;19.50;65.60;;;;;;5033117;28;20037;-71
2023/10/04 07:18:07;;;;;;;0.93;0.63;;;19.60;66.00;;;;;;5014005;28;20037;-71
2023/10/04 07:20:34;;;;;;;10.77;1.85;;;19.70;66.10;;;;;;5013109;28;20034;-71
2023/10/04 07:23:03;;;;;;;2.33;1.30;;;19.70;66.00;;;;;;5038167;28;20055;-71
2023/10/04 07:25:32;;;;;;;4.35;1.05;;;19.70;65.10;;;;;;5045788;28;20033;-71
2023/10/04 07:30:44;;;;;;;2.88;0.98;;;20.00;64.90;;;;;;5049852;28;20044;-71
2023/10/04 07:33:11;;;;;;;0.95;0.60;;;20.30;63.90;;;;;;5051366;28;20398;-71
2023/10/04 07:35:37;;;;;;;0.75;0.52;;;20.40;63.20;;;;;;5051031;28;20037;-71
2023/10/04 07:38:05;;;;;;;0.55;0.43;;;20.40;62.10;;;;;;5033566;28;20099;-71
2023/10/04 07:40:31;;;;;;;1.30;0.75;;;20.60;62.10;;;;;;5029032;28;20116;-72
2023/10/04 07:42:59;;;;;;;1.50;1.02;;;20.70;61.70;;;;;;5024536;28;20036;-71
2023/10/04 07:45:28;;;;;;;0.70;0.70;;;21.00;61.40;;;;;;5033288;28;20043;-72
2023/10/04 07:47:56;;;;;;;1.52;1.25;;;21.20;60.30;;;;;;5033951;28;20060;-72
2023/10/04 07:50:25;;;;;;;1.30;1.13;;;22.00;58.50;;;;;;5032700;28;20526;-72
2023/10/04 07:53:10;;;;;;;1.00;0.60;;;22.10;57.90;;;;;;5051387;28;20067;-72
2023/10/04 07:55:36;;;;;;;0.60;0.38;;;21.80;54.90;;;;;;5033141;28;20162;-72
2023/10/04 07:58:04;;;;;;;0.93;0.73;;;21.60;55.10;;;;;;5051201;28;20037;-72
2023/10/04 08:00:49;;;;;;;0.40;0.40;;;21.50;55.00;;;;;;5032018;28;20036;-72
2023/10/04 08:03:15;;;;;;;0.57;0.30;;;21.30;55.40;;;;;;5033340;28;20124;-72
2023/10/04 08:05:42;;;;;;;1.15;0.82;;;21.30;55.60;;;;;;5032999;28;20413;-72
2023/10/04 08:08:08;;;;;;;0.55;0.43;;;21.30;55.60;;;;;;5051326;28;20049;-72
2023/10/04 08:10:36;;;;;;;1.70;0.38;;;21.30;55.30;;;;;;5050086;28;20098;-72
2023/10/04 08:13:04;;;;;;;1.45;0.57;;;21.20;54.80;;;;;;5033406;28;20413;-72
2023/10/04 08:15:35;;;;;;;0.40;0.40;;;21.20;54.90;;;;;;5016331;28;20029;-71
2023/10/04 08:18:01;;;;;;;1.50;0.95;;;21.20;54.00;;;;;;5033765;28;20390;-72
2023/10/04 08:20:29;;;;;;;0.47;0.40;;;21.30;54.20;;;;;;5050208;28;20037;-72
2023/10/04 08:22:57;;;;;;;0.55;0.45;;;21.30;53.90;;;;;;5051095;28;20057;-71
2023/10/04 08:25:29;;;;;;;0.55;0.35;;;21.30;53.60;;;;;;5035372;28;20056;-72
2023/10/04 08:27:56;;;;;;;1.38;0.30;;;21.30;53.10;;;;;;5054091;28;20049;-72
2023/10/04 08:30:23;;;;;;;0.63;0.50;;;21.30;53.20;;;;;;5051212;28;20380;-72
2023/10/04 08:32:51;;;;;;;0.75;0.70;;;21.40;53.20;;;;;;5039894;28;20029;-72
2023/10/04 08:38:05;;;;;;;0.88;0.88;;;21.50;51.80;;;;;;5059331;28;20094;-72
2023/10/04 08:40:38;;;;;;;1.85;0.77;;;21.60;50.00;;;;;;5026875;28;20087;-72
2023/10/04 08:43:07;;;;;;;0.57;0.50;;;21.60;50.40;;;;;;5037337;28;20048;-72
2023/10/04 08:45:37;;;;;;;0.50;0.43;;;21.70;50.70;;;;;;5047736;28;20120;-72
2023/10/04 08:48:03;;;;;;;0.77;0.60;;;21.80;50.00;;;;;;5052995;28;20041;-71
2023/10/04 08:51:09;;;;;;;0.30;0.30;;;22.00;48.20;;;;;;5014637;28;20088;-72
2023/10/04 08:53:55;;;;;;;0.32;0.32;;;22.30;47.60;;;;;;5036645;28;20033;-72
2023/10/04 08:56:26;;;;;;;0.32;0.32;;;22.40;45.50;;;;;;5055879;28;20033;-72
2023/10/04 08:58:53;;;;;;;0.13;0.13;;;22.40;45.60;;;;;;5056392;28;20036;-72
2023/10/04 09:01:21;;;;;;;0.32;0.32;;;22.40;44.70;;;;;;5037906;28;20715;-71
2023/10/04 09:06:31;;;;;;;0.65;0.50;;;22.30;45.00;;;;;;5073101;28;20086;-72
2023/10/04 09:08:57;;;;;;;;;;;22.30;45.70;;;;;;5056256;28;20041;-71
2023/10/04 09:11:25;;;;;;;1.38;0.55;;;22.20;45.50;;;;;;5062762;28;19921;-72
2023/10/04 09:13:52;;;;;;;0.73;0.70;;;22.20;45.10;;;;;;5033172;28;20039;-72
2023/10/04 09:16:37;;;;;;;0.32;0.32;;;22.20;44.70;;;;;;5015711;28;20033;-72
2023/10/04 09:19:22;;;;;;;0.45;0.40;;;22.10;45.10;;;;;;5045448;28;20412;-72
2023/10/04 09:21:52;;;;;;;0.20;0.20;;;22.10;44.90;;;;;;5071734;28;20059;-72
2023/10/04 09:24:18;;;;;;;0.63;0.40;;;22.00;44.80;;;;;;5055547;28;20089;-72
2023/10/04 09:27:03;;;;;;;;;;;21.90;45.50;;;;;;5032574;28;20491;-72
2023/10/04 09:29:48;;;;;;;0.40;0.30;;;21.80;45.00;;;;;;5051689;28;19924;-72
2023/10/04 09:32:18;;;;;;;0.20;0.20;;;21.70;45.20;;;;;;5050808;28;20049;-72
2023/10/04 09:35:05;;;;;;;2.53;0.85;;;21.60;44.20;;;;;;5027303;28;20045;-72
2023/10/04 09:37:31;;;;;;;0.85;0.30;;;21.50;43.70;;;;;;5034752;28;20037;-72
2023/10/04 09:40:12;;;;;;;1.35;0.47;;;21.50;42.90;;;;;;5038574;28;20041;-72
2023/10/04 09:42:57;;;;;;;3.80;0.50;;;21.50;43.90;;;;;;5031602;28;20045;-72
2023/10/04 09:45:24;;;;;;;0.10;0.10;;;21.50;44.10;;;;;;5032487;28;20041;-74
2023/10/04 09:48:13;;;;;;;0.20;0.20;;;21.70;43.80;;;;;;5015381;28;20506;-72
2023/10/04 09:50:39;;;;;;;0.40;0.40;;;21.70;43.70;;;;;;5031994;28;20073;-72
2023/10/04 09:53:06;;;;;;;0.52;0.35;;;21.70;43.40;;;;;;5033472;28;20033;-73
2023/10/04 09:55:34;;;;;;;0.90;0.80;;;21.70;44.30;;;;;;5052057;28;20473;-73
2023/10/04 09:58:03;;;;;;;0.40;0.20;;;21.70;44.10;;;;;;5034931;28;20052;-73
2023/10/04 10:00:30;;;;;;;0.13;0.13;;;21.70;43.80;;;;;;5032282;28;20044;-73
2023/10/04 10:03:00;;;;;;;0.10;0.10;;;21.80;43.00;;;;;;5052318;28;20504;-73
2023/10/04 10:05:34;;;;;;;0.50;0.40;;;22.00;43.80;;;;;;5039939;28;20082;-73
2023/10/04 10:08:21;;;;;;;0.90;0.30;;;22.30;43.30;;;;;;5032843;28;20090;-72
2023/10/04 10:10:47;;;;;;;0.53;0.50;;;22.80;42.80;;;;;;5033488;28;20389;-72
2023/10/04 10:13:16;;;;;;;0.17;0.17;;;23.10;41.30;;;;;;5014021;28;20394;-72
2023/10/04 10:15:42;;;;;;;0.93;0.77;;;23.40;40.70;;;;;;5048405;28;20559;-73
2023/10/04 10:18:10;;;;;;;0.10;0.10;;;23.50;40.10;;;;;;5036547;28;20037;-72
2023/10/04 10:20:39;;;;;;;0.30;0.30;;;23.50;39.50;;;;;;5030298;28;20735;-72
2023/10/04 10:23:23;;;;;;;0.20;0.20;;;23.50;39.20;;;;;;5051703;28;20060;-72
2023/10/04 10:26:27;;;;;;;0.75;0.40;;;23.60;39.20;;;;;;5051832;28;20428;-72
2023/10/04 10:29:20;;;;;;;0.15;0.15;;;23.70;39.30;;;;;;5071916;28;20036;-72
2023/10/04 10:31:54;;;;;;;0.52;0.30;;;23.80;39.50;;;;;;5071628;28;20040;-73
2023/10/04 10:34:20;;;;;;;0.10;0.10;;;23.80;38.30;;;;;;5072610;28;20377;-72
2023/10/04 10:37:07;;;;;;;0.30;0.17;;;23.70;38.40;;;;;;5071918;28;20485;-72
2023/10/04 10:39:46;;;;;;;0.65;0.47;;;23.80;39.00;;;;;;5054690;28;20363;-72
2023/10/04 10:42:14;;;;;;;0.20;0.20;;;23.90;38.80;;;;;;5053977;28;20063;-72
2023/10/04 10:44:42;;;;;;;0.55;0.55;;;23.90;38.70;;;;;;5072391;28;20124;-72
2023/10/04 10:47:27;;;;;;;0.68;0.25;;;23.80;38.10;;;;;;5036724;28;20058;-73
2023/10/04 10:49:56;;;;;;;0.30;0.30;;;23.70;38.60;;;;;;5072328;28;20128;-73
2023/10/04 10:52:43;;;;;;;1.55;0.50;;;23.80;38.80;;;;;;5053217;28;20036;-73
2023/10/04 10:55:18;;;;;;;0.30;0.22;;;23.70;38.40;;;;;;5071644;28;20033;-73
2023/10/04 10:57:48;;;;;;;0.20;0.20;;;23.60;38.20;;;;;;5055367;28;20045;-73
2023/10/04 11:02:43;;;;;;;1.23;0.82;;;23.90;38.60;;;;;;5071795;28;20036;-72
2023/10/04 11:05:12;;;;;;;0.10;0.10;;;24.10;38.60;;;;;;5053345;28;20111;-73
2023/10/04 11:07:39;;;;;;;0.28;0.28;;;24.30;38.50;;;;;;5041029;28;20041;-72
2023/10/04 11:10:06;;;;;;;0.20;0.20;;;24.60;38.10;;;;;;5051278;28;20543;-73
2023/10/04 11:12:39;;;;;;;0.38;0.22;;;24.80;37.70;;;;;;5050165;28;20113;-72
2023/10/04 11:15:06;;;;;;;0.55;0.32;;;25.10;37.20;;;;;;5049148;28;20060;-73
2023/10/04 11:17:35;;;;;;;0.10;0.10;;;25.00;36.70;;;;;;5051427;28;20021;-73
2023/10/04 11:20:26;;;;;;;2.42;0.60;;;25.00;36.40;;;;;;5051681;28;20123;-73
2023/10/04 11:22:53;;;;;;;9.32;0.68;;;25.40;36.00;;;;;;5050495;28;20091;-73
2023/10/04 11:25:19;;;;;;;0.20;0.20;;;25.60;36.00;;;;;;5050961;28;20029;-73
2023/10/04 11:27:50;;;;;;;0.50;0.50;;;25.90;35.10;;;;;;5050964;28;20033;-73
2023/10/04 11:30:17;;;;;;;6.45;0.57;;;26.40;33.80;;;;;;5049250;28;20117;-73
2023/10/04 11:32:45;;;;;;;0.30;0.30;;;26.40;33.10;;;;;;5050198;28;20532;-73
2023/10/04 11:35:15;;;;;;;0.10;0.10;;;26.20;33.40;;;;;;5033428;28;20394;-73
2023/10/04 11:38:05;;;;;;;0.47;0.30;;;26.20;34.20;;;;;;5050374;28;20075;-73
2023/10/04 11:40:31;;;;;;;0.35;0.30;;;26.40;33.70;;;;;;5050549;28;20420;-73
2023/10/04 11:43:17;;;;;;;0.52;0.30;;;26.50;32.90;;;;;;5033777;28;20079;-74
2023/10/04 11:45:44;;;;;;;0.30;0.30;;;26.40;33.10;;;;;;5033165;28;20425;-73
2023/10/04 11:48:13;;;;;;;0.47;0.30;;;26.30;32.70;;;;;;5033708;28;20063;-73
2023/10/04 11:50:58;;;;;;;1.75;0.50;;;26.30;33.60;;;;;;5050187;28;20096;-73
2023/10/04 11:53:49;;;;;;;0.20;0.20;;;26.10;34.00;;;;;;5033340;28;20432;-73
2023/10/04 11:56:15;;;;;;;0.20;0.20;;;26.10;33.30;;;;;;5034051;28;20444;-73
2023/10/04 11:59:00;;;;;;;0.40;0.40;;;26.10;31.70;;;;;;5051680;28;20108;-73
2023/10/04 12:01:26;;;;;;;3.00;1.13;;;26.20;33.40;;;;;;5054271;28;20465;-73
2023/10/04 12:03:59;;;;;;;0.30;0.20;;;26.70;32.70;;;;;;5055193;28;20029;-73
2023/10/04 12:06:44;;;;;;;0.30;0.30;;;26.70;32.40;;;;;;5053313;28;20049;-73
2023/10/04 12:09:11;;;;;;;0.10;0.10;;;27.10;33.30;;;;;;5037501;28;20036;-73
2023/10/04 12:11:38;;;;;;;0.17;0.17;;;27.60;30.90;;;;;;5053936;28;20119;-73
2023/10/04 12:14:06;;;;;;;0.30;0.30;;;27.50;31.50;;;;;;5033761;28;20036;-72
2023/10/04 12:16:34;;;;;;;0.22;0.22;;;27.40;31.60;;;;;;5034328;28;20445;-73
2023/10/04 12:19:04;;;;;;;0.80;0.70;;;27.30;31.60;;;;;;5016988;28;20056;-73
2023/10/04 12:21:31;;;;;;;0.63;0.63;;;27.30;31.90;;;;;;5044189;28;20078;-73
2023/10/04 12:23:57;;;;;;;0.65;0.65;;;27.30;32.50;;;;;;5036736;28;20041;-73
2023/10/04 12:26:23;;;;;;;0.65;0.47;;;27.20;31.90;;;;;;5036136;28;20033;-73
2023/10/04 12:28:51;;;;;;;0.20;0.20;;;26.90;31.20;;;;;;5036767;28;20041;-73
2023/10/04 12:31:17;;;;;;;1.85;0.57;;;26.90;31.40;;;;;;5052318;28;20041;-73
2023/10/04 12:33:43;;;;;;;2.75;0.73;;;26.90;32.20;;;;;;5052944;28;20435;-73
2023/10/04 12:36:09;;;;;;;1.17;0.82;;;26.80;32.20;;;;;;5052612;28;20061;-73
2023/10/04 12:38:36;;;;;;;0.20;0.20;;;26.80;32.40;;;;;;5053322;28;20036;-72
2023/10/04 12:41:03;;;;;;;0.90;0.40;;;26.90;31.90;;;;;;5034624;28;20041;-73
2023/10/04 12:43:29;;;;;;;0.40;0.40;;;26.90;31.70;;;;;;5054149;28;20056;-73
2023/10/04 12:45:55;;;;;;;0.25;0.25;;;27.30;31.40;;;;;;5053504;28;20037;-73
2023/10/04 12:48:22;;;;;;;0.22;0.22;;;28.30;30.00;;;;;;5053934;28;20037;-73
2023/10/04 12:50:49;;;;;;;1.13;0.30;;;28.80;28.40;;;;;;5051262;28;20509;-74
2023/10/04 12:53:16;;;;;;;0.20;0.20;;;28.70;28.70;;;;;;5052900;28;20426;-73
2023/10/04 12:56:03;;;;;;;1.40;1.17;;;28.60;28.00;;;;;;5035719;28;20037;-73
2023/10/04 12:58:30;;;;;;;0.85;0.43;;;29.00;29.20;;;;;;5054308;28;20059;-73
2023/10/04 13:00:56;;;;;;;0.30;0.30;;;30.40;27.10;;;;;;5051722;28;20056;-73
2023/10/04 13:03:22;;;;;;;0.30;0.30;;;30.00;27.70;;;;;;5053506;28;20431;-73
2023/10/04 13:05:48;;;;;;;0.68;0.57;;;29.70;27.80;;;;;;5035523;28;20090;-73
2023/10/04 13:08:20;;;;;;;0.43;0.40;;;30.40;27.70;;;;;;5053667;28;20114;-72
2023/10/04 13:10:49;;;;;;;0.47;0.38;;;32.40;25.20;;;;;;5052698;28;20033;-73
2023/10/04 13:13:16;;;;;;;0.52;0.40;;;33.70;23.50;;;;;;5053906;28;20044;-73
2023/10/04 13:15:42;;;;;;;0.85;0.65;;;34.10;23.30;;;;;;5053194;28;20029;-73
2023/10/04 13:18:11;;;;;;;0.25;0.25;;;34.10;22.00;;;;;;5053687;28;20064;-73
2023/10/04 13:20:40;;;;;;;0.73;0.73;;;33.40;22.90;;;;;;5035292;28;20140;-73
2023/10/04 13:23:07;;;;;;;0.20;0.20;;;32.30;24.30;;;;;;5053712;28;20139;-72
2023/10/04 13:25:33;;;;;;;0.32;0.32;;;31.60;24.90;;;;;;5052991;28;20041;-73
2023/10/04 13:28:00;;;;;;;0.43;0.40;;;33.10;24.60;;;;;;5035751;28;20040;-73
2023/10/04 13:30:27;;;;;;;0.57;0.30;;;34.60;22.50;;;;;;5051239;28;20052;-73
2023/10/04 13:32:56;;;;;;;0.45;0.45;;;35.50;21.00;;;;;;5053529;28;20025;-73
2023/10/04 13:35:22;;;;;;;0.55;0.55;;;36.20;20.60;;;;;;5052890;28;20398;-73
2023/10/04 13:37:51;;;;;;;0.32;0.32;;;35.10;21.10;;;;;;5035454;28;20231;-73
2023/10/04 13:40:20;;;;;;;0.47;0.43;;;33.70;22.30;;;;;;5052191;28;20061;-72
2023/10/04 13:45:34;;;;;;;0.57;0.57;;;31.80;24.60;;;;;;5052672;28;20629;-73